Terminal Aerodrome Forecast
Issued by NWS

Home | Current Version | Previous Version | Text Only | Print | Product List | Glossary On
Versions: 1 2 3 4 5 6 7 8 9 10 11 12 13 14 15
137
FTUS42 KTAE 182320
TAFVLD
TAF
KVLD 182320Z 1900/1924 VRB03KT P6SM BKN200
     FM190900 00000KT 4SM BR SKC
     FM191200 35005KT P6SM FEW035
     FM192000 25005KT P6SM VCTS SCT040CB=

USA.gov is the U.S. government's official web portal to all federal, state and local government web resources and services.